Archival Weather

Republic

Farmingdale, New York (KFRG)

Report from: Sunday, January 28, 2024 1:53 AM EST
Current time: Monday, June 17, 2024 3:23 AM EDT

Current weather – Weather history – Daily summaries
Weather forecast

Temperature5.0°C (41.0°F)
Wind chill2.8°C (37.1°F)
Dew point2.8°C (37.0°F)
Winds 5 kts (2.6 m/s, 5.8 mph) East (90°)
Visibility10 mi. (16.1 km)
Clouds Scattered clouds 2,600 ft. (792 m)
Scattered clouds 4,700 ft. (1,433 m)
Ceiling: Overcast 7,000 ft. (2,134 m)
Altimeter30.13 in.Hg (1020 mB)
Relative humidity86 %
Density altitude-1,334 ft. (-407 m)
Sea-level pressure102.0 kPa (1020 mB, 30.13 in.Hg)
Remarks Fully automated report
Automated weather observing station without precipitation discriminator
Flight conditions Visual Meteorological Conditions
Raw dataKFRG 280653Z AUTO 09005KT 10SM SCT026 SCT047 OVC070 05/03 A3013 RMK AO1 SLP202 T00500028
An error has occurred. This application may no longer respond until reloaded. Reload 🗙